Time;durP1;ratioP1;P1;durP2;ratioP2;P2;SDS_P1;SDS_P2;PMS_P1;PMS_P2;Temp;Humidity;BMP_temperature;BMP_pressure;BME280_temperature;BME280_humidity;BME280_pressure;Samples;Min_cycle;Max_cycle;Signal;HPM_P1;HPM_P2
2022/10/17 00:02:23;;;;;;;13.37;6.00;;;;;;;;;;5071653;28;20193;-69
2022/10/17 00:04:50;;;;;;;11.10;6.10;;;;;;;;;;5071502;28;20217;-69
2022/10/17 00:07:16;;;;;;;6.43;5.10;;;;;;;;;;5072051;28;20235;-69
2022/10/17 00:09:43;;;;;;;9.73;5.67;;;;;;;;;;5054275;28;20652;-69
2022/10/17 00:12:10;;;;;;;5.37;4.03;;;;;;;;;;5071579;28;20252;-69
2022/10/17 00:14:36;;;;;;;6.90;4.93;;;;;;;;;;5071876;28;20581;-69
2022/10/17 00:17:03;;;;;;;7.40;4.53;;;;;;;;;;5054067;28;20240;-69
2022/10/17 00:19:30;;;;;;;11.67;5.67;;;;;;;;;;5071415;28;20190;-69
2022/10/17 00:21:56;;;;;;;8.67;4.20;;;;;;;;;;5071609;28;20657;-69
2022/10/17 00:24:23;;;;;;;6.70;3.93;;;;;;;;;;5071821;28;20208;-69
2022/10/17 00:26:49;;;;;;;6.67;5.00;;;;;;;;;;5071390;28;20194;-69
2022/10/17 00:29:16;;;;;;;7.70;5.40;;;;;;;;;;5070739;28;20269;-69
2022/10/17 00:31:46;;;;;;;6.23;4.60;;;;;;;;;;5070912;28;20206;-69
2022/10/17 00:34:12;;;;;;;5.03;2.83;;;;;;;;;;5071573;28;20626;-69
2022/10/17 00:36:39;;;;;;;4.20;3.10;;;;;;;;;;5071403;28;20226;-69
2022/10/17 00:39:06;;;;;;;8.30;4.47;;;;;;;;;;5074003;28;20255;-69
2022/10/17 00:41:33;;;;;;;5.43;4.40;;;;;;;;;;5091484;28;20191;-69
2022/10/17 00:44:05;;;;;;;9.10;5.37;;;;;;;;;;5074338;28;20235;-69
2022/10/17 00:46:35;;;;;;;6.67;5.60;;;;;;;;;;5063806;28;20305;-69
2022/10/17 00:49:03;;;;;;;6.10;4.90;;;;;;;;;;5036563;28;20695;-69
2022/10/17 00:51:33;;;;;;;7.90;5.23;;;;;;;;;;5053416;28;20602;-69
2022/10/17 00:53:59;;;;;;;7.83;5.90;;;;;;;;;;5053242;28;20233;-69
2022/10/17 00:56:26;;;;;;;9.20;5.50;;;;;;;;;;5053050;28;20194;-69
2022/10/17 00:58:53;;;;;;;11.13;7.77;;;;;;;;;;5053109;28;20221;-69
2022/10/17 01:01:20;;;;;;;14.13;8.30;;;;;;;;;;5053104;28;20260;-69
2022/10/17 01:03:46;;;;;;;9.20;6.67;;;;;;;;;;5053006;28;20197;-69
2022/10/17 01:06:13;;;;;;;10.67;7.33;;;;;;;;;;5066648;28;20200;-69
2022/10/17 01:08:40;;;;;;;11.77;7.23;;;;;;;;;;5089732;28;20222;-69
2022/10/17 01:11:09;;;;;;;26.53;8.10;;;;;;;;;;5090793;28;20217;-69
2022/10/17 01:13:38;;;;;;;19.13;8.37;;;;;;;;;;5090881;28;20684;-69
2022/10/17 01:16:09;;;;;;;15.77;6.57;;;;;;;;;;5072755;28;20182;-69
2022/10/17 01:18:39;;;;;;;20.00;6.90;;;;;;;;;;5091178;28;20193;-68
2022/10/17 01:21:06;;;;;;;21.57;7.40;;;;;;;;;;5072312;28;20599;-69
2022/10/17 01:23:42;;;;;;;9.43;6.87;;;;;;;;;;5089533;28;20721;-68
2022/10/17 01:26:18;;;;;;;11.77;6.93;;;;;;;;;;5072036;28;20196;-69
2022/10/17 01:28:45;;;;;;;19.70;7.03;;;;;;;;;;5055283;28;20201;-69
2022/10/17 01:31:12;;;;;;;11.17;6.27;;;;;;;;;;5072326;28;20181;-68
2022/10/17 01:33:45;;;;;;;16.07;5.90;;;;;;;;;;5072577;28;20240;-69
2022/10/17 01:36:32;;;;;;;12.60;5.47;;;;;;;;;;5055614;28;20201;-69
2022/10/17 01:39:01;;;;;;;19.47;6.63;;;;;;;;;;5071716;28;20198;-69
2022/10/17 01:41:33;;;;;;;9.47;6.20;;;;;;;;;;5071058;28;20229;-69
2022/10/17 01:44:11;;;;;;;10.17;6.00;;;;;;;;;;5090715;28;20192;-68
2022/10/17 01:46:42;;;;;;;7.30;5.90;;;;;;;;;;5072327;28;20193;-69
2022/10/17 01:49:09;;;;;;;9.00;6.03;;;;;;;;;;5055329;28;20205;-69
2022/10/17 01:51:40;;;;;;;9.10;6.10;;;;;;;;;;5060527;28;20218;-69
2022/10/17 01:54:18;;;;;;;7.77;5.40;;;;;;;;;;5052085;28;20182;-69
2022/10/17 01:56:45;;;;;;;11.13;5.80;;;;;;;;;;5069606;28;20662;-69
2022/10/17 01:59:12;;;;;;;9.43;5.43;;;;;;;;;;5068380;28;20194;-68
2022/10/17 02:01:40;;;;;;;8.23;5.70;;;;;;;;;;5035227;28;20213;-69
2022/10/17 02:04:07;;;;;;;9.80;5.43;;;;;;;;;;5051879;28;20190;-69
2022/10/17 02:06:34;;;;;;;6.83;4.93;;;;;;;;;;5061808;28;20197;-69
2022/10/17 02:09:13;;;;;;;6.90;5.30;;;;;;;;;;5055184;28;20283;-69
2022/10/17 02:11:40;;;;;;;8.93;5.47;;;;;;;;;;5055049;28;20229;-69
2022/10/17 02:14:18;;;;;;;11.87;5.70;;;;;;;;;;5054934;28;20681;-69
2022/10/17 02:17:03;;;;;;;20.27;6.87;;;;;;;;;;5071631;28;20196;-68
2022/10/17 02:19:33;;;;;;;9.57;6.20;;;;;;;;;;5054904;28;20208;-69
2022/10/17 02:22:00;;;;;;;15.80;6.60;;;;;;;;;;5069955;28;20201;-69
2022/10/17 02:24:26;;;;;;;32.53;6.97;;;;;;;;;;5071568;28;20201;-69
2022/10/17 02:26:57;;;;;;;18.93;6.30;;;;;;;;;;5089525;28;20189;-69
2022/10/17 02:29:25;;;;;;;28.05;7.20;;;;;;;;;;5070238;28;20872;-68
2022/10/17 02:31:57;;;;;;;22.30;7.80;;;;;;;;;;5071733;28;20189;-68
2022/10/17 02:34:29;;;;;;;24.53;6.23;;;;;;;;;;5071571;28;20288;-68
2022/10/17 02:36:57;;;;;;;13.83;5.67;;;;;;;;;;5054432;28;20221;-68
2022/10/17 02:39:24;;;;;;;24.43;6.57;;;;;;;;;;5071589;28;20189;-68
2022/10/17 02:41:51;;;;;;;12.63;7.10;;;;;;;;;;5068029;28;20196;-68
2022/10/17 02:44:17;;;;;;;10.63;6.60;;;;;;;;;;5052216;28;20190;-68
2022/10/17 02:46:45;;;;;;;13.10;6.43;;;;;;;;;;5050565;28;20201;-71
2022/10/17 02:49:16;;;;;;;15.47;6.73;;;;;;;;;;5034888;28;20203;-68
2022/10/17 02:51:44;;;;;;;12.33;7.30;;;;;;;;;;5036500;28;20202;-68
2022/10/17 02:54:14;;;;;;;8.23;6.07;;;;;;;;;;5069925;28;20217;-71
2022/10/17 02:56:42;;;;;;;27.33;6.40;;;;;;;;;;5062479;28;20207;-71
2022/10/17 02:59:08;;;;;;;12.17;6.77;;;;;;;;;;5053959;28;20229;-71
2022/10/17 03:01:36;;;;;;;18.90;5.70;;;;;;;;;;5084277;28;20636;-69
2022/10/17 03:04:07;;;;;;;19.03;6.10;;;;;;;;;;5049458;28;20207;-70
2022/10/17 03:06:33;;;;;;;11.73;5.67;;;;;;;;;;5067843;28;20192;-71
2022/10/17 03:09:00;;;;;;;19.70;5.20;;;;;;;;;;5068835;28;20281;-71
2022/10/17 03:11:27;;;;;;;8.23;5.57;;;;;;;;;;5065843;28;20224;-70
2022/10/17 03:13:55;;;;;;;9.33;4.90;;;;;;;;;;5066067;28;20233;-69
2022/10/17 03:16:21;;;;;;;7.60;4.83;;;;;;;;;;5050231;28;20193;-72
2022/10/17 03:18:48;;;;;;;7.97;5.10;;;;;;;;;;5066265;28;20201;-73
2022/10/17 03:21:16;;;;;;;9.57;5.13;;;;;;;;;;5063670;28;20558;-73
2022/10/17 03:23:43;;;;;;;9.33;4.97;;;;;;;;;;5067209;28;20296;-70
2022/10/17 03:26:11;;;;;;;5.80;3.87;;;;;;;;;;5079768;28;20202;-69
2022/10/17 03:28:39;;;;;;;6.63;4.57;;;;;;;;;;5059965;28;20198;-70
2022/10/17 03:31:07;;;;;;;6.00;4.43;;;;;;;;;;5082973;28;20203;-69
2022/10/17 03:33:35;;;;;;;7.13;4.80;;;;;;;;;;5065390;28;22096;-70
2022/10/17 03:36:08;;;;;;;7.07;5.13;;;;;;;;;;5050548;28;20215;-70
2022/10/17 03:38:37;;;;;;;6.60;4.60;;;;;;;;;;5067286;28;20228;-69
2022/10/17 03:41:04;;;;;;;15.60;11.07;;;;;;;;;;5066257;28;20194;-68
2022/10/17 03:43:31;;;;;;;35.90;9.43;;;;;;;;;;5067165;28;20239;-68
2022/10/17 03:45:59;;;;;;;19.90;9.40;;;;;;;;;;5067543;28;20209;-71
2022/10/17 03:48:28;;;;;;;10.63;6.90;;;;;;;;;;5067978;28;20213;-68
2022/10/17 03:51:01;;;;;;;9.60;6.53;;;;;;;;;;5066361;28;20246;-68
2022/10/17 03:53:30;;;;;;;12.47;7.37;;;;;;;;;;5078066;28;20232;-69
2022/10/17 03:55:57;;;;;;;13.40;6.83;;;;;;;;;;5066643;28;20194;-69
2022/10/17 03:58:24;;;;;;;9.07;6.50;;;;;;;;;;5055045;28;20241;-68
2022/10/17 04:00:53;;;;;;;9.23;5.57;;;;;;;;;;5076820;28;20192;-72
2022/10/17 04:03:20;;;;;;;8.10;5.23;;;;;;;;;;5063159;28;20505;-69
2022/10/17 04:05:47;;;;;;;6.70;4.67;;;;;;;;;;5063167;28;20201;-71
2022/10/17 04:08:14;;;;;;;9.67;5.17;;;;;;;;;;5046463;28;20194;-68
2022/10/17 04:11:04;;;;;;;8.53;5.40;;;;;;;;;;5062907;28;20209;-69
2022/10/17 04:13:32;;;;;;;12.17;6.50;;;;;;;;;;5062923;28;20246;-69
2022/10/17 04:16:00;;;;;;;12.90;7.50;;;;;;;;;;5079716;28;20633;-70
2022/10/17 04:18:27;;;;;;;15.33;8.70;;;;;;;;;;5047025;28;20210;-69
2022/10/17 04:20:55;;;;;;;13.73;7.47;;;;;;;;;;5064005;28;20266;-69
2022/10/17 04:23:22;;;;;;;16.30;9.37;;;;;;;;;;5044176;28;20214;-69
2022/10/17 04:25:55;;;;;;;14.17;7.13;;;;;;;;;;5064296;28;20197;-69
2022/10/17 04:28:25;;;;;;;8.10;5.53;;;;;;;;;;5047770;28;20192;-69
2022/10/17 04:31:02;;;;;;;15.77;6.30;;;;;;;;;;5064265;28;20217;-69
2022/10/17 04:33:35;;;;;;;10.77;6.30;;;;;;;;;;5061095;28;20214;-69
2022/10/17 04:36:02;;;;;;;10.20;5.90;;;;;;;;;;5054346;28;20280;-69
2022/10/17 04:38:30;;;;;;;9.50;6.20;;;;;;;;;;5062483;28;20224;-70
2022/10/17 04:40:57;;;;;;;9.43;5.37;;;;;;;;;;5046592;28;20190;-70
2022/10/17 04:43:23;;;;;;;8.63;5.50;;;;;;;;;;5080430;28;20202;-70
2022/10/17 04:45:50;;;;;;;7.63;5.17;;;;;;;;;;5060224;28;20680;-72
2022/10/17 04:48:17;;;;;;;8.97;5.57;;;;;;;;;;5084530;28;20552;-72
2022/10/17 04:50:53;;;;;;;8.53;5.37;;;;;;;;;;5088072;28;20198;-72
2022/10/17 04:53:33;;;;;;;10.00;5.43;;;;;;;;;;5073361;28;20238;-70
2022/10/17 04:56:00;;;;;;;9.90;5.77;;;;;;;;;;5054509;28;20619;-70
2022/10/17 04:58:28;;;;;;;8.43;5.30;;;;;;;;;;5046806;28;20641;-70
2022/10/17 05:00:55;;;;;;;12.43;5.90;;;;;;;;;;5059442;28;20261;-70
2022/10/17 05:03:26;;;;;;;9.63;6.03;;;;;;;;;;5056214;28;20186;-70
2022/10/17 05:05:53;;;;;;;12.40;6.23;;;;;;;;;;5067093;28;20194;-69
2022/10/17 05:08:21;;;;;;;11.03;5.67;;;;;;;;;;5077743;28;20699;-69
2022/10/17 05:10:49;;;;;;;7.53;5.90;;;;;;;;;;5065595;28;20247;-70
2022/10/17 05:13:15;;;;;;;10.00;5.90;;;;;;;;;;5059770;28;20205;-71
2022/10/17 05:15:42;;;;;;;10.00;5.80;;;;;;;;;;5090981;28;20200;-70
2022/10/17 05:18:10;;;;;;;9.57;5.83;;;;;;;;;;5054094;28;20204;-71
2022/10/17 05:20:39;;;;;;;11.17;5.70;;;;;;;;;;5064405;28;20630;-71
2022/10/17 05:23:06;;;;;;;8.20;5.73;;;;;;;;;;5083964;28;20193;-72
2022/10/17 05:25:38;;;;;;;9.23;5.93;;;;;;;;;;5065919;28;20714;-71
2022/10/17 05:28:05;;;;;;;10.53;6.23;;;;;;;;;;5077692;28;20197;-71
2022/10/17 05:30:33;;;;;;;11.87;5.73;;;;;;;;;;5064188;28;20556;-72
2022/10/17 05:33:06;;;;;;;9.17;6.33;;;;;;;;;;5076059;28;20201;-72
2022/10/17 05:35:33;;;;;;;11.57;6.90;;;;;;;;;;5063893;28;20193;-73
2022/10/17 05:38:00;;;;;;;14.13;8.03;;;;;;;;;;5064868;28;20244;-72
2022/10/17 05:40:29;;;;;;;19.80;11.33;;;;;;;;;;5067343;28;20194;-70
2022/10/17 05:42:57;;;;;;;14.10;7.97;;;;;;;;;;5071549;28;20194;-69
2022/10/17 05:45:24;;;;;;;15.20;8.97;;;;;;;;;;5072541;28;20330;-69
2022/10/17 05:47:51;;;;;;;15.60;9.87;;;;;;;;;;5071397;28;20216;-69
2022/10/17 05:50:20;;;;;;;18.07;10.87;;;;;;;;;;5072407;28;20215;-70
2022/10/17 05:52:58;;;;;;;14.87;9.43;;;;;;;;;;5072217;28;20246;-69
2022/10/17 05:55:26;;;;;;;15.17;7.37;;;;;;;;;;5055661;28;20197;-70
2022/10/17 05:57:52;;;;;;;15.13;7.90;;;;;;;;;;5055999;28;20556;-70
2022/10/17 06:00:21;;;;;;;15.73;8.87;;;;;;;;;;5071436;28;20208;-70
2022/10/17 06:02:57;;;;;;;9.60;5.73;;;;;;;;;;5065044;28;20190;-72
2022/10/17 06:05:24;;;;;;;11.93;7.00;;;;;;;;;;5061219;28;20240;-73
2022/10/17 06:07:54;;;;;;;12.93;8.07;;;;;;;;;;5048265;28;20199;-70
2022/10/17 06:10:27;;;;;;;11.63;7.50;;;;;;;;;;5049618;28;20193;-71
2022/10/17 06:12:56;;;;;;;10.10;6.87;;;;;;;;;;5055072;28;20235;-71
2022/10/17 06:15:24;;;;;;;14.53;6.33;;;;;;;;;;5064953;28;20185;-71
2022/10/17 06:17:59;;;;;;;12.00;6.10;;;;;;;;;;5061827;28;20209;-70
2022/10/17 06:20:27;;;;;;;9.73;6.23;;;;;;;;;;5064287;28;20236;-73
2022/10/17 06:22:54;;;;;;;9.57;6.17;;;;;;;;;;5081266;28;20193;-73
2022/10/17 06:25:35;;;;;;;9.97;6.53;;;;;;;;;;5068681;28;20561;-73
2022/10/17 06:28:02;;;;;;;11.77;5.70;;;;;;;;;;5063218;28;20205;-74
2022/10/17 06:30:28;;;;;;;11.13;6.23;;;;;;;;;;5078273;28;20189;-72
2022/10/17 06:32:57;;;;;;;9.73;6.03;;;;;;;;;;5059283;28;20209;-73
2022/10/17 06:35:24;;;;;;;8.63;5.63;;;;;;;;;;5047586;28;20320;-75
2022/10/17 06:37:52;;;;;;;8.13;6.00;;;;;;;;;;5082355;28;20317;-73
2022/10/17 06:40:20;;;;;;;10.13;7.07;;;;;;;;;;5063395;28;20591;-72
2022/10/17 06:42:47;;;;;;;13.07;7.77;;;;;;;;;;5067791;28;20203;-73
2022/10/17 06:45:33;;;;;;;12.17;8.23;;;;;;;;;;5074970;28;20302;-71
2022/10/17 06:48:22;;;;;;;15.40;9.03;;;;;;;;;;5062769;28;20201;-72
2022/10/17 06:51:12;;;;;;;14.53;9.40;;;;;;;;;;5068486;28;20201;-75
2022/10/17 06:53:52;;;;;;;15.47;9.17;;;;;;;;;;5080943;28;20205;-73
2022/10/17 06:56:38;;;;;;;17.23;9.47;;;;;;;;;;5080688;28;20197;-76
2022/10/17 06:59:18;;;;;;;12.90;8.70;;;;;;;;;;5064042;28;20199;-72
2022/10/17 07:01:59;;;;;;;10.33;8.33;;;;;;;;;;5061885;28;20283;-75
2022/10/17 07:04:27;;;;;;;11.67;8.97;;;;;;;;;;5062535;28;20206;-73
2022/10/17 07:06:54;;;;;;;9.20;8.07;;;;;;;;;;5063105;28;20544;-75
2022/10/17 07:09:26;;;;;;;12.10;7.87;;;;;;;;;;5062690;28;20668;-71
2022/10/17 07:11:56;;;;;;;14.63;7.43;;;;;;;;;;5080817;28;20228;-75
2022/10/17 07:14:24;;;;;;;9.20;7.50;;;;;;;;;;5060081;28;20636;-70
2022/10/17 07:16:52;;;;;;;11.77;7.33;;;;;;;;;;5064855;28;20185;-76
2022/10/17 07:19:22;;;;;;;11.90;7.07;;;;;;;;;;5082725;28;20205;-73
2022/10/17 07:21:49;;;;;;;8.53;6.23;;;;;;;;;;5065511;28;20189;-75
2022/10/17 07:24:17;;;;;;;7.93;6.23;;;;;;;;;;5074539;28;20649;-75
2022/10/17 07:26:48;;;;;;;10.27;6.77;;;;;;;;;;5049395;28;20247;-77
2022/10/17 07:29:15;;;;;;;9.37;6.50;;;;;;;;;;5052971;28;20200;-72
2022/10/17 07:31:52;;;;;;;7.77;6.13;;;;;;;;;;5069548;28;20759;-72
2022/10/17 07:34:19;;;;;;;12.10;6.60;;;;;;;;;;5053589;28;20222;-73
2022/10/17 07:36:47;;;;;;;7.87;5.80;;;;;;;;;;5060671;28;20236;-72
2022/10/17 07:39:15;;;;;;;11.23;6.97;;;;;;;;;;5046445;28;20194;-71
2022/10/17 07:41:44;;;;;;;12.53;6.73;;;;;;;;;;5082654;28;20194;-71
2022/10/17 07:44:14;;;;;;;13.33;7.00;;;;;;;;;;5066704;28;20204;-70
2022/10/17 07:46:45;;;;;;;11.80;6.73;;;;;;;;;;5066746;28;20200;-70
2022/10/17 07:49:15;;;;;;;9.73;6.40;;;;;;;;;;5053115;28;20226;-70
2022/10/17 07:51:42;;;;;;;7.90;6.00;;;;;;;;;;5081615;28;20181;-70
2022/10/17 07:54:09;;;;;;;10.20;6.40;;;;;;;;;;5085631;28;20217;-73
2022/10/17 07:56:37;;;;;;;10.57;6.30;;;;;;;;;;5085974;28;20715;-83
2022/10/17 07:59:04;;;;;;;9.40;5.60;;;;;;;;;;5078881;28;20212;-76
2022/10/17 08:01:37;;;;;;;9.03;5.20;;;;;;;;;;5069332;28;20661;-77
2022/10/17 08:04:04;;;;;;;8.83;6.00;;;;;;;;;;5048570;28;20194;-77
2022/10/17 08:06:32;;;;;;;10.23;4.77;;;;;;;;;;5083693;28;20181;-87
2022/10/17 08:09:00;;;;;;;9.77;5.63;;;;;;;;;;5068617;28;20289;-78
2022/10/17 08:11:28;;;;;;;7.50;5.03;;;;;;;;;;5067879;28;20177;-75
2022/10/17 08:13:55;;;;;;;10.87;6.20;;;;;;;;;;5082354;28;20281;-75
2022/10/17 08:16:24;;;;;;;10.93;6.10;;;;;;;;;;5087820;28;20190;-78
2022/10/17 08:18:55;;;;;;;9.47;4.73;;;;;;;;;;5085432;28;20266;-75
2022/10/17 08:21:21;;;;;;;6.70;5.00;;;;;;;;;;5086349;28;20196;-75
2022/10/17 08:23:55;;;;;;;13.37;8.20;;;;;;;;;;5064757;28;20561;-77
2022/10/17 08:26:22;;;;;;;14.83;7.97;;;;;;;;;;5064692;28;20211;-72
2022/10/17 08:28:52;;;;;;;14.50;8.63;;;;;;;;;;5066963;28;20717;-73
2022/10/17 08:31:19;;;;;;;15.27;8.40;;;;;;;;;;5079991;28;20707;-73
2022/10/17 08:33:46;;;;;;;16.37;8.07;;;;;;;;;;5085574;28;20241;-81
2022/10/17 08:36:14;;;;;;;12.37;5.67;;;;;;;;;;5067107;28;20222;-77
2022/10/17 08:38:42;;;;;;;9.00;4.63;;;;;;;;;;5083915;28;20252;-75
2022/10/17 08:41:17;;;;;;;6.33;3.90;;;;;;;;;;5051008;28;20295;-78
2022/10/17 08:43:47;;;;;;;10.03;4.87;;;;;;;;;;5065363;28;20198;-71
2022/10/17 08:46:14;;;;;;;12.37;7.00;;;;;;;;;;5075081;28;20738;-70
2022/10/17 08:48:43;;;;;;;19.97;10.73;;;;;;;;;;5064284;28;20830;-74
2022/10/17 08:51:23;;;;;;;6.03;2.87;;;;;;;;;;5063876;28;20194;-72
2022/10/17 08:54:00;;;;;;;8.13;3.20;;;;;;;;;;5064145;28;20225;-75
2022/10/17 08:56:32;;;;;;;6.30;2.70;;;;;;;;;;5083790;28;20667;-76
2022/10/17 08:59:23;;;;;;;6.80;2.53;;;;;;;;;;5082121;28;20213;-71
2022/10/17 09:01:52;;;;;;;6.50;2.30;;;;;;;;;;5083012;28;20201;-73
2022/10/17 09:04:38;;;;;;;6.50;2.60;;;;;;;;;;5085553;28;20200;-74
2022/10/17 09:07:08;;;;;;;6.07;2.40;;;;;;;;;;5082475;28;20226;-68
2022/10/17 09:09:41;;;;;;;6.87;2.00;;;;;;;;;;5084617;28;20282;-70
2022/10/17 09:12:14;;;;;;;5.00;1.70;;;;;;;;;;5081826;28;20197;-69
2022/10/17 09:14:46;;;;;;;5.97;2.00;;;;;;;;;;5082313;28;20228;-68
2022/10/17 09:17:24;;;;;;;4.97;1.90;;;;;;;;;;5082165;28;20216;-72
2022/10/17 09:19:58;;;;;;;5.47;2.00;;;;;;;;;;5082380;28;20703;-71
2022/10/17 09:22:27;;;;;;;8.40;2.27;;;;;;;;;;5083095;28;20205;-70
2022/10/17 09:24:55;;;;;;;9.47;5.40;;;;;;;;;;5049745;28;20186;-72
2022/10/17 09:27:23;;;;;;;4.57;2.30;;;;;;;;;;5047428;28;20194;-72
2022/10/17 09:29:51;;;;;;;5.50;2.40;;;;;;;;;;5064317;28;20285;-71
2022/10/17 09:32:18;;;;;;;4.47;1.70;;;;;;;;;;5083263;28;20190;-71
2022/10/17 09:34:45;;;;;;;7.07;2.03;;;;;;;;;;5079347;28;20329;-73
2022/10/17 09:37:14;;;;;;;4.93;1.80;;;;;;;;;;5060236;28;20225;-72
2022/10/17 09:39:41;;;;;;;4.03;1.60;;;;;;;;;;5043920;28;20925;-71
2022/10/17 09:42:20;;;;;;;3.87;2.10;;;;;;;;;;5055262;28;20212;-75
2022/10/17 09:44:52;;;;;;;3.33;1.70;;;;;;;;;;5067530;28;20257;-70
2022/10/17 09:47:28;;;;;;;7.40;2.10;;;;;;;;;;5061400;28;20194;-70
2022/10/17 09:49:55;;;;;;;7.30;1.93;;;;;;;;;;5074362;28;20227;-67
2022/10/17 09:52:22;;;;;;;4.27;1.80;;;;;;;;;;5081138;28;20193;-70
2022/10/17 09:54:49;;;;;;;8.10;1.87;;;;;;;;;;5063882;28;20213;-70
2022/10/17 09:57:16;;;;;;;4.60;1.93;;;;;;;;;;5063385;28;20204;-68
2022/10/17 09:59:44;;;;;;;4.63;1.70;;;;;;;;;;5080842;28;20221;-70
2022/10/17 10:02:11;;;;;;;2.90;1.93;;;;;;;;;;5063300;28;20515;-70
2022/10/17 10:04:57;;;;;;;4.67;1.97;;;;;;;;;;5080558;28;20229;-70
2022/10/17 10:07:36;;;;;;;3.57;2.03;;;;;;;;;;5074760;28;20669;-72
2022/10/17 10:10:03;;;;;;;3.33;1.60;;;;;;;;;;5078599;28;20206;-70
2022/10/17 10:12:31;;;;;;;3.53;1.83;;;;;;;;;;5074452;28;20189;-70
2022/10/17 10:14:58;;;;;;;3.83;2.20;;;;;;;;;;5080826;28;20333;-71
2022/10/17 10:17:34;;;;;;;2.77;1.70;;;;;;;;;;5060951;28;20278;-70
2022/10/17 10:20:02;;;;;;;3.03;1.83;;;;;;;;;;5082310;28;20197;-72
2022/10/17 10:22:29;;;;;;;3.83;1.80;;;;;;;;;;5080834;28;20201;-75
2022/10/17 10:25:07;;;;;;;3.37;2.13;;;;;;;;;;5076794;28;20198;-77
2022/10/17 10:27:34;;;;;;;3.43;1.90;;;;;;;;;;5080978;28;20224;-76
2022/10/17 10:30:02;;;;;;;5.67;2.00;;;;;;;;;;5064674;28;20198;-74
2022/10/17 10:32:29;;;;;;;2.90;1.73;;;;;;;;;;5082447;28;20219;-73
2022/10/17 10:34:58;;;;;;;4.90;2.17;;;;;;;;;;5078754;28;20307;-70
2022/10/17 10:37:28;;;;;;;3.33;1.90;;;;;;;;;;5078856;28;20260;-72
2022/10/17 10:39:56;;;;;;;3.73;1.90;;;;;;;;;;5061181;28;20275;-75
2022/10/17 10:42:22;;;;;;;4.00;2.20;;;;;;;;;;5064067;28;20189;-75
2022/10/17 10:44:52;;;;;;;4.03;1.97;;;;;;;;;;5076982;28;20212;-74
2022/10/17 10:47:25;;;;;;;3.97;1.80;;;;;;;;;;5080384;28;20182;-73
2022/10/17 10:50:16;;;;;;;4.27;2.00;;;;;;;;;;5030833;28;20775;-74
2022/10/17 10:52:50;;;;;;;4.53;2.13;;;;;;;;;;5081354;28;20612;-73
2022/10/17 10:55:17;;;;;;;4.63;2.00;;;;;;;;;;5079807;28;20241;-74
2022/10/17 10:57:44;;;;;;;4.23;1.90;;;;;;;;;;5082737;28;20186;-74
2022/10/17 11:00:14;;;;;;;7.00;2.10;;;;;;;;;;5083770;28;20979;-75
2022/10/17 11:02:44;;;;;;;5.33;1.93;;;;;;;;;;5083247;28;20197;-75
2022/10/17 11:05:19;;;;;;;4.03;1.57;;;;;;;;;;5079276;28;20186;-85
2022/10/17 11:08:20;;;;;;;3.53;1.90;;;;;;;;;;5063602;28;20242;-76
2022/10/17 11:10:55;;;;;;;5.37;2.30;;;;;;;;;;5064107;28;20204;-73
2022/10/17 11:13:29;;;;;;;5.13;2.17;;;;;;;;;;5066793;28;20954;-81
2022/10/17 11:16:13;;;;;;;3.17;2.20;;;;;;;;;;5084560;28;20228;-81
2022/10/17 11:18:44;;;;;;;4.60;2.07;;;;;;;;;;5087450;28;20727;-73
2022/10/17 11:21:59;;;;;;;3.87;2.30;;;;;;;;;;5086284;28;20663;-74
2022/10/17 11:24:27;;;;;;;4.53;2.30;;;;;;;;;;4987859;28;20349;-73
2022/10/17 11:27:00;;;;;;;3.37;2.00;;;;;;;;;;4968896;28;20204;-74
2022/10/17 11:29:32;;;;;;;5.60;2.50;;;;;;;;;;5041471;28;20209;-73
2022/10/17 11:32:02;;;;;;;4.43;2.83;;;;;;;;;;5063450;28;20202;-74
2022/10/17 11:34:30;;;;;;;4.97;2.60;;;;;;;;;;5049367;28;20293;-72
2022/10/17 11:37:21;;;;;;;3.77;2.40;;;;;;;;;;5066142;28;20253;-73
2022/10/17 11:39:50;;;;;;;5.70;2.50;;;;;;;;;;5081243;28;20568;-73
2022/10/17 11:42:30;;;;;;;5.93;2.60;;;;;;;;;;5065267;28;20209;-73
2022/10/17 11:45:04;;;;;;;4.40;2.97;;;;;;;;;;5084411;28;20209;-73
2022/10/17 11:47:33;;;;;;;3.83;2.60;;;;;;;;;;5049825;28;20772;-76
2022/10/17 11:50:18;;;;;;;6.50;2.90;;;;;;;;;;5066285;28;20261;-73
2022/10/17 11:53:08;;;;;;;4.63;2.90;;;;;;;;;;5077367;28;20196;-73
2022/10/17 11:55:36;;;;;;;4.87;2.70;;;;;;;;;;5047814;28;20700;-73
2022/10/17 11:58:13;;;;;;;3.00;2.40;;;;;;;;;;5082641;28;20212;-74
2022/10/17 12:00:46;;;;;;;5.10;2.30;;;;;;;;;;5079619;28;20195;-72
2022/10/17 12:03:24;;;;;;;3.67;2.20;;;;;;;;;;5066660;28;20678;-72
2022/10/17 12:06:12;;;;;;;3.60;2.40;;;;;;;;;;5063670;28;20292;-71
2022/10/17 12:08:43;;;;;;;4.07;2.97;;;;;;;;;;5082940;28;20294;-72
2022/10/17 12:11:13;;;;;;;3.77;2.93;;;;;;;;;;5049846;28;20208;-71
2022/10/17 12:13:47;;;;;;;3.77;3.17;;;;;;;;;;5078533;28;20193;-73
2022/10/17 12:16:17;;;;;;;5.37;3.00;;;;;;;;;;5067809;28;20220;-70
2022/10/17 12:18:48;;;;;;;4.53;3.73;;;;;;;;;;5083306;28;20266;-74
2022/10/17 12:21:15;;;;;;;5.57;3.73;;;;;;;;;;5084256;28;20294;-70
2022/10/17 12:23:50;;;;;;;8.30;4.40;;;;;;;;;;5050453;28;20745;-71
2022/10/17 12:26:24;;;;;;;9.90;4.50;;;;;;;;;;5082571;28;20203;-71
2022/10/17 12:28:51;;;;;;;8.93;4.03;;;;;;;;;;5083490;28;20572;-71
2022/10/17 12:31:26;;;;;;;6.63;5.47;;;;;;;;;;5083930;28;20219;-75
2022/10/17 12:34:00;;;;;;;9.30;5.00;;;;;;;;;;5083791;28;20231;-76
2022/10/17 12:36:28;;;;;;;7.23;4.33;;;;;;;;;;5050497;28;20224;-72
2022/10/17 12:39:01;;;;;;;8.47;4.50;;;;;;;;;;5083669;28;20659;-72
2022/10/17 12:41:51;;;;;;;6.90;4.80;;;;;;;;;;5077222;28;20679;-70
2022/10/17 12:44:20;;;;;;;8.40;3.83;;;;;;;;;;5062722;28;20204;-72
2022/10/17 12:47:22;;;;;;;6.60;3.80;;;;;;;;;;5079906;28;20212;-73
2022/10/17 12:49:51;;;;;;;6.57;3.90;;;;;;;;;;5063656;28;20193;-72
2022/10/17 12:52:25;;;;;;;7.87;4.73;;;;;;;;;;5064360;28;20205;-70
2022/10/17 12:54:54;;;;;;;6.23;4.37;;;;;;;;;;5091818;28;20226;-68
2022/10/17 12:57:48;;;;;;;9.07;4.10;;;;;;;;;;5092029;28;20256;-71
2022/10/17 13:00:18;;;;;;;5.80;3.93;;;;;;;;;;5091341;28;20189;-71
2022/10/17 13:02:45;;;;;;;8.07;4.40;;;;;;;;;;5091663;28;20266;-71
2022/10/17 13:05:16;;;;;;;7.37;4.60;;;;;;;;;;5070161;28;20186;-71
2022/10/17 13:07:43;;;;;;;7.17;4.60;;;;;;;;;;5069111;28;20263;-71
2022/10/17 13:10:17;;;;;;;9.90;3.90;;;;;;;;;;5069741;28;20190;-71
2022/10/17 13:12:44;;;;;;;9.73;4.00;;;;;;;;;;5084415;28;20211;-71
2022/10/17 13:15:11;;;;;;;5.87;4.00;;;;;;;;;;5069962;28;20738;-71
2022/10/17 13:17:38;;;;;;;6.43;4.13;;;;;;;;;;5056723;28;20213;-71
2022/10/17 13:20:18;;;;;;;7.33;4.30;;;;;;;;;;5069906;28;20215;-71
2022/10/17 13:22:53;;;;;;;6.70;4.40;;;;;;;;;;5084820;28;20223;-71
2022/10/17 13:25:20;;;;;;;7.53;4.10;;;;;;;;;;5053921;28;20225;-71
2022/10/17 13:27:47;;;;;;;8.00;4.50;;;;;;;;;;5091204;28;20233;-71
2022/10/17 13:30:21;;;;;;;6.67;4.03;;;;;;;;;;5069781;28;20184;-71
2022/10/17 13:32:50;;;;;;;7.50;4.53;;;;;;;;;;5069725;28;20201;-70
2022/10/17 13:35:27;;;;;;;5.70;4.73;;;;;;;;;;5069308;28;20276;-69
2022/10/17 13:38:14;;;;;;;5.73;4.30;;;;;;;;;;5090706;28;20630;-71
2022/10/17 13:40:42;;;;;;;5.63;3.97;;;;;;;;;;5071272;28;20727;-70
2022/10/17 13:43:16;;;;;;;5.33;4.40;;;;;;;;;;5055051;28;20193;-71
2022/10/17 13:45:48;;;;;;;6.67;4.10;;;;;;;;;;5057917;28;20197;-72
2022/10/17 13:48:19;;;;;;;7.07;4.50;;;;;;;;;;5078761;28;20224;-76
2022/10/17 13:50:46;;;;;;;10.97;5.27;;;;;;;;;;5063256;28;20205;-77
2022/10/17 13:53:13;;;;;;;10.20;5.90;;;;;;;;;;5071934;28;20225;-79
2022/10/17 13:55:52;;;;;;;7.20;5.17;;;;;;;;;;5073430;28;20227;-73
2022/10/17 13:58:40;;;;;;;9.30;5.97;;;;;;;;;;5079322;28;20200;-78
2022/10/17 14:01:07;;;;;;;8.97;6.50;;;;;;;;;;5066315;28;20209;-72
2022/10/17 14:03:38;;;;;;;7.60;6.00;;;;;;;;;;5084192;28;20223;-72
2022/10/17 14:06:18;;;;;;;8.20;5.50;;;;;;;;;;5078280;28;20725;-71
2022/10/17 14:08:52;;;;;;;8.43;5.80;;;;;;;;;;5082869;28;20212;-70
2022/10/17 14:11:24;;;;;;;6.93;5.80;;;;;;;;;;5070723;28;20873;-73
2022/10/17 14:13:53;;;;;;;8.57;5.70;;;;;;;;;;5100419;28;20188;-70
2022/10/17 14:16:21;;;;;;;7.40;5.80;;;;;;;;;;5073225;28;20237;-70
2022/10/17 14:18:49;;;;;;;8.30;6.20;;;;;;;;;;5054248;28;20208;-70
2022/10/17 14:21:22;;;;;;;8.70;6.50;;;;;;;;;;5071603;28;20186;-70
2022/10/17 14:24:13;;;;;;;10.37;6.70;;;;;;;;;;5071067;28;20216;-70
2022/10/17 14:26:47;;;;;;;9.37;7.23;;;;;;;;;;5071214;28;20247;-70
2022/10/17 14:29:34;;;;;;;10.60;9.10;;;;;;;;;;5070384;28;20569;-70
2022/10/17 14:32:07;;;;;;;11.17;7.87;;;;;;;;;;5041081;28;20206;-70
2022/10/17 14:34:35;;;;;;;11.53;7.90;;;;;;;;;;5058828;28;20208;-69
2022/10/17 14:37:07;;;;;;;8.43;7.13;;;;;;;;;;5070724;28;20762;-70
2022/10/17 14:39:34;;;;;;;8.63;6.43;;;;;;;;;;5061233;28;20204;-70
2022/10/17 14:42:00;;;;;;;9.50;6.60;;;;;;;;;;5073184;28;20181;-70
2022/10/17 14:44:31;;;;;;;8.47;6.03;;;;;;;;;;5061071;28;20182;-70
2022/10/17 14:47:04;;;;;;;7.50;5.63;;;;;;;;;;5060695;28;20218;-70
2022/10/17 14:50:01;;;;;;;8.73;6.30;;;;;;;;;;5074621;28;20190;-70
2022/10/17 14:52:28;;;;;;;8.30;5.90;;;;;;;;;;5051879;28;20272;-70
2022/10/17 14:54:56;;;;;;;8.03;6.03;;;;;;;;;;5057474;28;20271;-70
2022/10/17 14:57:31;;;;;;;8.10;6.23;;;;;;;;;;5053361;28;20229;-70
2022/10/17 14:59:59;;;;;;;10.57;6.67;;;;;;;;;;5060911;28;20598;-70
2022/10/17 15:02:27;;;;;;;9.33;6.57;;;;;;;;;;5077615;28;20216;-70